sensor_id;sensor_type;location;lat;lon;timestamp;P1;durP1;ratioP1;P2;durP2;ratioP2
59159;SDS011;44941;45.058;20.076;2023-04-23T00:02:15;12.35;;;6.85;;
59159;SDS011;44941;45.058;20.076;2023-04-23T00:04:45;14.10;;;7.70;;
59159;SDS011;44941;45.058;20.076;2023-04-23T00:07:14;12.93;;;7.10;;
59159;SDS011;44941;45.058;20.076;2023-04-23T00:09:40;16.50;;;6.80;;
59159;SDS011;44941;45.058;20.076;2023-04-23T00:12:08;13.57;;;6.82;;
59159;SDS011;44941;45.058;20.076;2023-04-23T00:14:34;14.20;;;7.35;;
59159;SDS011;44941;45.058;20.076;2023-04-23T00:17:00;15.90;;;7.05;;
59159;SDS011;44941;45.058;20.076;2023-04-23T00:19:26;19.67;;;7.90;;
59159;SDS011;44941;45.058;20.076;2023-04-23T00:21:53;14.70;;;7.45;;
59159;SDS011;44941;45.058;20.076;2023-04-23T00:24:19;15.85;;;7.47;;
59159;SDS011;44941;45.058;20.076;2023-04-23T00:26:45;14.48;;;7.20;;
59159;SDS011;44941;45.058;20.076;2023-04-23T00:29:11;16.08;;;7.68;;
59159;SDS011;44941;45.058;20.076;2023-04-23T00:31:37;19.27;;;7.10;;
59159;SDS011;44941;45.058;20.076;2023-04-23T00:39:33;18.85;;;7.72;;
59159;SDS011;44941;45.058;20.076;2023-04-23T00:42:13;15.70;;;8.15;;
59159;SDS011;44941;45.058;20.076;2023-04-23T00:47:57;14.75;;;8.27;;
59159;SDS011;44941;45.058;20.076;2023-04-23T00:53:04;17.95;;;8.10;;
59159;SDS011;44941;45.058;20.076;2023-04-23T00:55:31;15.27;;;8.13;;
59159;SDS011;44941;45.058;20.076;2023-04-23T00:57:57;14.52;;;7.90;;
59159;SDS011;44941;45.058;20.076;2023-04-23T01:00:24;16.05;;;8.07;;
59159;SDS011;44941;45.058;20.076;2023-04-23T01:02:51;12.20;;;7.60;;
59159;SDS011;44941;45.058;20.076;2023-04-23T01:05:17;12.48;;;8.00;;
59159;SDS011;44941;45.058;20.076;2023-04-23T01:07:44;12.52;;;7.07;;
59159;SDS011;44941;45.058;20.076;2023-04-23T01:10:11;17.70;;;7.80;;
59159;SDS011;44941;45.058;20.076;2023-04-23T01:12:40;18.30;;;8.48;;
59159;SDS011;44941;45.058;20.076;2023-04-23T01:15:06;14.48;;;7.63;;
59159;SDS011;44941;45.058;20.076;2023-04-23T01:17:48;14.23;;;8.25;;
59159;SDS011;44941;45.058;20.076;2023-04-23T01:20:36;15.63;;;7.97;;
59159;SDS011;44941;45.058;20.076;2023-04-23T01:23:20;18.23;;;8.27;;
59159;SDS011;44941;45.058;20.076;2023-04-23T01:25:47;18.67;;;8.32;;
59159;SDS011;44941;45.058;20.076;2023-04-23T01:28:15;23.92;;;8.63;;
59159;SDS011;44941;45.058;20.076;2023-04-23T01:30:53;22.25;;;8.20;;
59159;SDS011;44941;45.058;20.076;2023-04-23T01:33:21;16.40;;;8.27;;
59159;SDS011;44941;45.058;20.076;2023-04-23T01:35:50;13.87;;;8.37;;
59159;SDS011;44941;45.058;20.076;2023-04-23T01:38:22;12.63;;;8.95;;
59159;SDS011;44941;45.058;20.076;2023-04-23T01:40:57;19.00;;;9.07;;
59159;SDS011;44941;45.058;20.076;2023-04-23T01:46:16;15.75;;;9.00;;
59159;SDS011;44941;45.058;20.076;2023-04-23T01:48:42;23.60;;;8.82;;
59159;SDS011;44941;45.058;20.076;2023-04-23T01:51:08;16.80;;;8.18;;
59159;SDS011;44941;45.058;20.076;2023-04-23T01:53:34;18.40;;;8.35;;
59159;SDS011;44941;45.058;20.076;2023-04-23T01:56:00;14.82;;;8.48;;
59159;SDS011;44941;45.058;20.076;2023-04-23T01:58:27;19.42;;;9.90;;
59159;SDS011;44941;45.058;20.076;2023-04-23T02:00:53;23.45;;;9.45;;
59159;SDS011;44941;45.058;20.076;2023-04-23T02:03:20;17.77;;;9.82;;
59159;SDS011;44941;45.058;20.076;2023-04-23T02:05:46;21.92;;;9.90;;
59159;SDS011;44941;45.058;20.076;2023-04-23T02:08:12;20.42;;;9.98;;
59159;SDS011;44941;45.058;20.076;2023-04-23T02:10:39;16.23;;;9.43;;
59159;SDS011;44941;45.058;20.076;2023-04-23T02:13:05;20.13;;;9.93;;
59159;SDS011;44941;45.058;20.076;2023-04-23T02:15:31;18.65;;;9.88;;
59159;SDS011;44941;45.058;20.076;2023-04-23T02:17:58;23.52;;;10.05;;
59159;SDS011;44941;45.058;20.076;2023-04-23T02:20:24;23.25;;;10.43;;
59159;SDS011;44941;45.058;20.076;2023-04-23T02:22:50;22.08;;;11.50;;
59159;SDS011;44941;45.058;20.076;2023-04-23T02:25:17;21.80;;;10.25;;
59159;SDS011;44941;45.058;20.076;2023-04-23T02:27:45;21.95;;;10.82;;
59159;SDS011;44941;45.058;20.076;2023-04-23T02:30:12;18.13;;;10.38;;
59159;SDS011;44941;45.058;20.076;2023-04-23T02:32:38;32.55;;;11.75;;
59159;SDS011;44941;45.058;20.076;2023-04-23T02:35:05;19.33;;;10.57;;
59159;SDS011;44941;45.058;20.076;2023-04-23T02:37:33;19.83;;;10.43;;
59159;SDS011;44941;45.058;20.076;2023-04-23T02:39:59;21.90;;;10.93;;
59159;SDS011;44941;45.058;20.076;2023-04-23T02:42:25;19.73;;;10.27;;
59159;SDS011;44941;45.058;20.076;2023-04-23T02:44:53;21.52;;;10.98;;
59159;SDS011;44941;45.058;20.076;2023-04-23T02:47:19;18.38;;;10.98;;
59159;SDS011;44941;45.058;20.076;2023-04-23T02:49:45;21.27;;;11.70;;
59159;SDS011;44941;45.058;20.076;2023-04-23T02:52:11;22.55;;;11.80;;
59159;SDS011;44941;45.058;20.076;2023-04-23T02:54:37;20.88;;;10.80;;
59159;SDS011;44941;45.058;20.076;2023-04-23T02:57:04;21.75;;;12.48;;
59159;SDS011;44941;45.058;20.076;2023-04-23T02:59:30;18.83;;;11.98;;
59159;SDS011;44941;45.058;20.076;2023-04-23T03:01:56;22.35;;;12.40;;
59159;SDS011;44941;45.058;20.076;2023-04-23T03:04:22;23.92;;;12.55;;
59159;SDS011;44941;45.058;20.076;2023-04-23T03:06:48;29.33;;;12.73;;
59159;SDS011;44941;45.058;20.076;2023-04-23T03:09:14;23.73;;;13.02;;
59159;SDS011;44941;45.058;20.076;2023-04-23T03:11:41;33.63;;;17.35;;
59159;SDS011;44941;45.058;20.076;2023-04-23T03:14:07;61.33;;;28.55;;
59159;SDS011;44941;45.058;20.076;2023-04-23T03:16:33;54.75;;;27.25;;
59159;SDS011;44941;45.058;20.076;2023-04-23T03:18:59;73.75;;;32.78;;
59159;SDS011;44941;45.058;20.076;2023-04-23T03:21:25;79.97;;;36.05;;
59159;SDS011;44941;45.058;20.076;2023-04-23T03:23:51;73.78;;;32.63;;
59159;SDS011;44941;45.058;20.076;2023-04-23T03:26:17;58.67;;;29.17;;
59159;SDS011;44941;45.058;20.076;2023-04-23T03:28:43;45.83;;;25.67;;
59159;SDS011;44941;45.058;20.076;2023-04-23T03:31:10;36.10;;;20.38;;
59159;SDS011;44941;45.058;20.076;2023-04-23T03:33:36;33.03;;;17.70;;
59159;SDS011;44941;45.058;20.076;2023-04-23T03:36:02;30.60;;;16.48;;
59159;SDS011;44941;45.058;20.076;2023-04-23T03:38:28;25.42;;;15.45;;
59159;SDS011;44941;45.058;20.076;2023-04-23T03:40:54;24.55;;;15.18;;
59159;SDS011;44941;45.058;20.076;2023-04-23T03:43:20;27.58;;;16.00;;
59159;SDS011;44941;45.058;20.076;2023-04-23T03:45:46;31.05;;;15.80;;
59159;SDS011;44941;45.058;20.076;2023-04-23T03:48:12;29.13;;;14.63;;
59159;SDS011;44941;45.058;20.076;2023-04-23T03:50:39;23.20;;;14.00;;
59159;SDS011;44941;45.058;20.076;2023-04-23T03:53:05;26.25;;;13.75;;
59159;SDS011;44941;45.058;20.076;2023-04-23T03:55:32;28.00;;;13.68;;
59159;SDS011;44941;45.058;20.076;2023-04-23T03:57:58;23.15;;;13.93;;
59159;SDS011;44941;45.058;20.076;2023-04-23T04:00:27;23.08;;;13.50;;
59159;SDS011;44941;45.058;20.076;2023-04-23T04:02:53;23.65;;;13.05;;
59159;SDS011;44941;45.058;20.076;2023-04-23T04:05:19;24.95;;;13.98;;
59159;SDS011;44941;45.058;20.076;2023-04-23T04:07:45;21.52;;;13.25;;
59159;SDS011;44941;45.058;20.076;2023-04-23T04:10:11;21.05;;;14.45;;
59159;SDS011;44941;45.058;20.076;2023-04-23T04:12:38;19.75;;;12.85;;
59159;SDS011;44941;45.058;20.076;2023-04-23T04:15:05;24.80;;;14.05;;
59159;SDS011;44941;45.058;20.076;2023-04-23T04:17:32;21.92;;;13.82;;
59159;SDS011;44941;45.058;20.076;2023-04-23T04:19:58;18.00;;;12.45;;
59159;SDS011;44941;45.058;20.076;2023-04-23T04:22:24;24.02;;;13.07;;
59159;SDS011;44941;45.058;20.076;2023-04-23T04:25:02;21.00;;;12.52;;
59159;SDS011;44941;45.058;20.076;2023-04-23T04:33:04;18.65;;;12.73;;
59159;SDS011;44941;45.058;20.076;2023-04-23T04:35:33;20.95;;;13.38;;
59159;SDS011;44941;45.058;20.076;2023-04-23T04:37:59;24.80;;;14.05;;
59159;SDS011;44941;45.058;20.076;2023-04-23T04:40:54;21.58;;;13.05;;
59159;SDS011;44941;45.058;20.076;2023-04-23T04:43:32;21.70;;;13.25;;
59159;SDS011;44941;45.058;20.076;2023-04-23T04:48:55;21.15;;;13.50;;
59159;SDS011;44941;45.058;20.076;2023-04-23T04:51:32;27.55;;;13.73;;
59159;SDS011;44941;45.058;20.076;2023-04-23T04:53:58;29.27;;;13.52;;
59159;SDS011;44941;45.058;20.076;2023-04-23T04:56:39;22.67;;;14.07;;
59159;SDS011;44941;45.058;20.076;2023-04-23T04:59:05;22.85;;;14.18;;
59159;SDS011;44941;45.058;20.076;2023-04-23T05:01:31;21.65;;;13.82;;
59159;SDS011;44941;45.058;20.076;2023-04-23T05:03:58;25.15;;;14.15;;
59159;SDS011;44941;45.058;20.076;2023-04-23T05:06:24;21.60;;;14.20;;
59159;SDS011;44941;45.058;20.076;2023-04-23T05:08:50;21.40;;;14.20;;
59159;SDS011;44941;45.058;20.076;2023-04-23T05:11:17;22.02;;;13.23;;
59159;SDS011;44941;45.058;20.076;2023-04-23T05:13:44;21.90;;;13.57;;
59159;SDS011;44941;45.058;20.076;2023-04-23T05:16:10;19.45;;;13.63;;
59159;SDS011;44941;45.058;20.076;2023-04-23T05:18:39;22.65;;;13.40;;
59159;SDS011;44941;45.058;20.076;2023-04-23T05:21:06;24.92;;;13.20;;
59159;SDS011;44941;45.058;20.076;2023-04-23T05:23:32;24.08;;;13.75;;
59159;SDS011;44941;45.058;20.076;2023-04-23T05:25:58;22.27;;;13.23;;
59159;SDS011;44941;45.058;20.076;2023-04-23T05:28:27;19.20;;;12.73;;
59159;SDS011;44941;45.058;20.076;2023-04-23T05:30:53;19.33;;;12.05;;
59159;SDS011;44941;45.058;20.076;2023-04-23T05:33:19;17.63;;;11.73;;
59159;SDS011;44941;45.058;20.076;2023-04-23T05:35:45;19.77;;;11.73;;
59159;SDS011;44941;45.058;20.076;2023-04-23T05:38:11;24.33;;;11.85;;
59159;SDS011;44941;45.058;20.076;2023-04-23T05:40:38;17.17;;;10.57;;
59159;SDS011;44941;45.058;20.076;2023-04-23T05:43:04;19.40;;;10.15;;
59159;SDS011;44941;45.058;20.076;2023-04-23T05:45:30;18.55;;;9.63;;
59159;SDS011;44941;45.058;20.076;2023-04-23T05:47:56;16.38;;;8.95;;
59159;SDS011;44941;45.058;20.076;2023-04-23T05:50:22;14.65;;;8.48;;
59159;SDS011;44941;45.058;20.076;2023-04-23T05:52:48;18.60;;;9.82;;
59159;SDS011;44941;45.058;20.076;2023-04-23T05:55:15;17.90;;;9.07;;
59159;SDS011;44941;45.058;20.076;2023-04-23T05:57:42;14.63;;;8.53;;
59159;SDS011;44941;45.058;20.076;2023-04-23T06:00:08;15.00;;;8.32;;
59159;SDS011;44941;45.058;20.076;2023-04-23T06:02:35;17.55;;;8.13;;
59159;SDS011;44941;45.058;20.076;2023-04-23T06:05:02;14.18;;;8.23;;
59159;SDS011;44941;45.058;20.076;2023-04-23T06:07:28;13.57;;;8.63;;
59159;SDS011;44941;45.058;20.076;2023-04-23T06:09:54;19.35;;;8.05;;
59159;SDS011;44941;45.058;20.076;2023-04-23T06:12:20;16.20;;;8.05;;
59159;SDS011;44941;45.058;20.076;2023-04-23T06:14:46;16.70;;;7.50;;
59159;SDS011;44941;45.058;20.076;2023-04-23T06:17:12;13.15;;;7.35;;
59159;SDS011;44941;45.058;20.076;2023-04-23T06:19:38;12.27;;;6.28;;
59159;SDS011;44941;45.058;20.076;2023-04-23T06:22:04;18.08;;;7.55;;
59159;SDS011;44941;45.058;20.076;2023-04-23T06:24:31;12.38;;;6.82;;
59159;SDS011;44941;45.058;20.076;2023-04-23T06:26:57;20.48;;;7.00;;
59159;SDS011;44941;45.058;20.076;2023-04-23T06:29:23;14.32;;;6.18;;
59159;SDS011;44941;45.058;20.076;2023-04-23T06:31:49;16.00;;;5.60;;
59159;SDS011;44941;45.058;20.076;2023-04-23T06:34:15;11.25;;;6.07;;
59159;SDS011;44941;45.058;20.076;2023-04-23T06:36:41;12.13;;;5.55;;
59159;SDS011;44941;45.058;20.076;2023-04-23T06:39:07;12.70;;;5.68;;
59159;SDS011;44941;45.058;20.076;2023-04-23T06:41:34;13.40;;;5.97;;
59159;SDS011;44941;45.058;20.076;2023-04-23T06:44:00;14.68;;;5.80;;
59159;SDS011;44941;45.058;20.076;2023-04-23T06:46:26;12.75;;;6.45;;
59159;SDS011;44941;45.058;20.076;2023-04-23T06:48:53;12.27;;;5.35;;
59159;SDS011;44941;45.058;20.076;2023-04-23T06:51:19;13.30;;;5.97;;
59159;SDS011;44941;45.058;20.076;2023-04-23T06:53:45;14.10;;;6.80;;
59159;SDS011;44941;45.058;20.076;2023-04-23T06:56:12;13.60;;;6.30;;
59159;SDS011;44941;45.058;20.076;2023-04-23T06:58:38;11.27;;;6.10;;
59159;SDS011;44941;45.058;20.076;2023-04-23T07:01:05;13.38;;;6.65;;
59159;SDS011;44941;45.058;20.076;2023-04-23T07:03:31;10.30;;;5.97;;
59159;SDS011;44941;45.058;20.076;2023-04-23T07:05:58;13.40;;;6.57;;
59159;SDS011;44941;45.058;20.076;2023-04-23T07:08:24;15.23;;;6.43;;
59159;SDS011;44941;45.058;20.076;2023-04-23T07:10:50;15.70;;;6.43;;
59159;SDS011;44941;45.058;20.076;2023-04-23T07:13:17;13.93;;;6.47;;
59159;SDS011;44941;45.058;20.076;2023-04-23T07:15:43;11.52;;;6.75;;
59159;SDS011;44941;45.058;20.076;2023-04-23T07:18:10;15.25;;;7.32;;
59159;SDS011;44941;45.058;20.076;2023-04-23T07:20:36;14.73;;;6.50;;
59159;SDS011;44941;45.058;20.076;2023-04-23T07:23:03;18.08;;;6.85;;
59159;SDS011;44941;45.058;20.076;2023-04-23T07:25:29;18.88;;;6.75;;
59159;SDS011;44941;45.058;20.076;2023-04-23T07:27:56;16.33;;;5.88;;
59159;SDS011;44941;45.058;20.076;2023-04-23T07:30:23;15.93;;;7.57;;
59159;SDS011;44941;45.058;20.076;2023-04-23T07:32:49;14.25;;;6.95;;
59159;SDS011;44941;45.058;20.076;2023-04-23T07:35:16;16.13;;;7.20;;
59159;SDS011;44941;45.058;20.076;2023-04-23T07:37:42;15.27;;;6.20;;
59159;SDS011;44941;45.058;20.076;2023-04-23T07:40:08;12.38;;;6.45;;
59159;SDS011;44941;45.058;20.076;2023-04-23T07:42:34;11.57;;;5.53;;
59159;SDS011;44941;45.058;20.076;2023-04-23T07:45:00;13.13;;;4.97;;
59159;SDS011;44941;45.058;20.076;2023-04-23T07:47:26;12.27;;;4.97;;
59159;SDS011;44941;45.058;20.076;2023-04-23T07:49:52;8.32;;;4.95;;
59159;SDS011;44941;45.058;20.076;2023-04-23T07:52:19;9.55;;;4.63;;
59159;SDS011;44941;45.058;20.076;2023-04-23T07:54:45;17.42;;;4.93;;
59159;SDS011;44941;45.058;20.076;2023-04-23T07:57:11;11.20;;;3.78;;
59159;SDS011;44941;45.058;20.076;2023-04-23T07:59:37;15.95;;;4.63;;
59159;SDS011;44941;45.058;20.076;2023-04-23T08:02:04;15.50;;;4.35;;
59159;SDS011;44941;45.058;20.076;2023-04-23T08:04:30;11.90;;;4.10;;
59159;SDS011;44941;45.058;20.076;2023-04-23T08:06:56;13.02;;;5.00;;
59159;SDS011;44941;45.058;20.076;2023-04-23T08:09:22;12.63;;;5.25;;
59159;SDS011;44941;45.058;20.076;2023-04-23T08:11:49;10.90;;;4.20;;
59159;SDS011;44941;45.058;20.076;2023-04-23T08:14:15;12.48;;;4.63;;
59159;SDS011;44941;45.058;20.076;2023-04-23T08:16:41;13.45;;;4.47;;
59159;SDS011;44941;45.058;20.076;2023-04-23T08:19:10;11.98;;;5.05;;
59159;SDS011;44941;45.058;20.076;2023-04-23T08:21:36;9.82;;;4.75;;
59159;SDS011;44941;45.058;20.076;2023-04-23T08:24:03;14.45;;;4.95;;
59159;SDS011;44941;45.058;20.076;2023-04-23T08:26:33;13.73;;;4.40;;
59159;SDS011;44941;45.058;20.076;2023-04-23T08:29:00;9.60;;;4.57;;
59159;SDS011;44941;45.058;20.076;2023-04-23T08:31:27;13.48;;;4.93;;
59159;SDS011;44941;45.058;20.076;2023-04-23T08:33:53;10.48;;;3.90;;
59159;SDS011;44941;45.058;20.076;2023-04-23T08:36:19;11.40;;;4.05;;
59159;SDS011;44941;45.058;20.076;2023-04-23T08:38:45;12.40;;;4.18;;
59159;SDS011;44941;45.058;20.076;2023-04-23T08:41:12;16.40;;;3.80;;
59159;SDS011;44941;45.058;20.076;2023-04-23T08:43:43;17.20;;;5.90;;
59159;SDS011;44941;45.058;20.076;2023-04-23T08:46:12;9.68;;;3.63;;
59159;SDS011;44941;45.058;20.076;2023-04-23T08:48:40;15.05;;;4.55;;
59159;SDS011;44941;45.058;20.076;2023-04-23T08:51:08;10.55;;;3.72;;
59159;SDS011;44941;45.058;20.076;2023-04-23T08:53:35;18.92;;;4.00;;
59159;SDS011;44941;45.058;20.076;2023-04-23T08:56:02;9.85;;;3.60;;
59159;SDS011;44941;45.058;20.076;2023-04-23T08:58:28;18.98;;;5.03;;
59159;SDS011;44941;45.058;20.076;2023-04-23T09:00:54;12.68;;;4.80;;
59159;SDS011;44941;45.058;20.076;2023-04-23T09:03:22;14.25;;;4.15;;
59159;SDS011;44941;45.058;20.076;2023-04-23T09:05:49;12.27;;;4.20;;
59159;SDS011;44941;45.058;20.076;2023-04-23T09:08:18;10.50;;;3.40;;
59159;SDS011;44941;45.058;20.076;2023-04-23T09:10:45;10.98;;;3.58;;
59159;SDS011;44941;45.058;20.076;2023-04-23T09:13:11;8.85;;;3.83;;
59159;SDS011;44941;45.058;20.076;2023-04-23T09:15:39;8.48;;;3.75;;
59159;SDS011;44941;45.058;20.076;2023-04-23T09:18:07;11.88;;;4.03;;
59159;SDS011;44941;45.058;20.076;2023-04-23T09:20:34;11.38;;;4.15;;
59159;SDS011;44941;45.058;20.076;2023-04-23T09:23:05;12.80;;;4.55;;
59159;SDS011;44941;45.058;20.076;2023-04-23T09:25:32;10.13;;;3.83;;
59159;SDS011;44941;45.058;20.076;2023-04-23T09:27:58;12.10;;;4.07;;
59159;SDS011;44941;45.058;20.076;2023-04-23T09:30:27;14.77;;;5.55;;
59159;SDS011;44941;45.058;20.076;2023-04-23T09:32:54;13.57;;;3.63;;
59159;SDS011;44941;45.058;20.076;2023-04-23T09:35:20;9.32;;;3.90;;
59159;SDS011;44941;45.058;20.076;2023-04-23T09:37:47;8.32;;;3.17;;
59159;SDS011;44941;45.058;20.076;2023-04-23T09:40:15;12.07;;;2.83;;
59159;SDS011;44941;45.058;20.076;2023-04-23T09:42:45;11.88;;;3.70;;
59159;SDS011;44941;45.058;20.076;2023-04-23T09:45:12;7.10;;;3.10;;
59159;SDS011;44941;45.058;20.076;2023-04-23T09:47:38;10.38;;;3.47;;
59159;SDS011;44941;45.058;20.076;2023-04-23T09:50:05;10.35;;;3.60;;
59159;SDS011;44941;45.058;20.076;2023-04-23T09:52:31;8.45;;;3.85;;
59159;SDS011;44941;45.058;20.076;2023-04-23T09:55:00;7.50;;;2.97;;
59159;SDS011;44941;45.058;20.076;2023-04-23T09:57:26;10.75;;;2.78;;
59159;SDS011;44941;45.058;20.076;2023-04-23T09:59:56;9.60;;;2.78;;
59159;SDS011;44941;45.058;20.076;2023-04-23T10:02:26;13.32;;;4.68;;
59159;SDS011;44941;45.058;20.076;2023-04-23T10:04:53;6.72;;;3.15;;
59159;SDS011;44941;45.058;20.076;2023-04-23T10:07:19;11.65;;;3.65;;
59159;SDS011;44941;45.058;20.076;2023-04-23T10:09:45;15.25;;;3.88;;
59159;SDS011;44941;45.058;20.076;2023-04-23T10:12:12;10.65;;;3.85;;
59159;SDS011;44941;45.058;20.076;2023-04-23T10:14:38;13.52;;;4.38;;
59159;SDS011;44941;45.058;20.076;2023-04-23T10:17:06;9.40;;;3.15;;
59159;SDS011;44941;45.058;20.076;2023-04-23T10:19:32;9.77;;;3.72;;
59159;SDS011;44941;45.058;20.076;2023-04-23T10:21:59;14.52;;;3.65;;
59159;SDS011;44941;45.058;20.076;2023-04-23T10:24:30;7.72;;;3.08;;
59159;SDS011;44941;45.058;20.076;2023-04-23T10:27:01;8.43;;;3.08;;
59159;SDS011;44941;45.058;20.076;2023-04-23T10:29:32;11.50;;;2.97;;
59159;SDS011;44941;45.058;20.076;2023-04-23T10:31:59;13.52;;;3.53;;
59159;SDS011;44941;45.058;20.076;2023-04-23T10:34:28;10.00;;;3.00;;
59159;SDS011;44941;45.058;20.076;2023-04-23T10:36:55;13.65;;;3.00;;
59159;SDS011;44941;45.058;20.076;2023-04-23T10:39:22;8.68;;;3.20;;
59159;SDS011;44941;45.058;20.076;2023-04-23T10:41:49;7.82;;;3.05;;
59159;SDS011;44941;45.058;20.076;2023-04-23T10:44:18;13.07;;;3.70;;
59159;SDS011;44941;45.058;20.076;2023-04-23T10:46:56;11.80;;;3.67;;
59159;SDS011;44941;45.058;20.076;2023-04-23T10:49:23;9.88;;;3.90;;
59159;SDS011;44941;45.058;20.076;2023-04-23T10:52:03;11.30;;;2.90;;
59159;SDS011;44941;45.058;20.076;2023-04-23T10:54:30;7.93;;;3.47;;
59159;SDS011;44941;45.058;20.076;2023-04-23T10:57:00;11.27;;;3.72;;
59159;SDS011;44941;45.058;20.076;2023-04-23T10:59:28;11.45;;;3.42;;
59159;SDS011;44941;45.058;20.076;2023-04-23T11:01:55;13.68;;;4.00;;
59159;SDS011;44941;45.058;20.076;2023-04-23T11:04:27;8.50;;;2.78;;
59159;SDS011;44941;45.058;20.076;2023-04-23T11:06:59;9.82;;;3.53;;
59159;SDS011;44941;45.058;20.076;2023-04-23T11:09:29;11.13;;;3.10;;
59159;SDS011;44941;45.058;20.076;2023-04-23T11:11:57;13.93;;;3.70;;
59159;SDS011;44941;45.058;20.076;2023-04-23T11:17:11;8.65;;;3.03;;
59159;SDS011;44941;45.058;20.076;2023-04-23T11:19:40;6.13;;;2.70;;
59159;SDS011;44941;45.058;20.076;2023-04-23T11:22:15;7.55;;;2.85;;
59159;SDS011;44941;45.058;20.076;2023-04-23T11:24:44;9.52;;;3.65;;
59159;SDS011;44941;45.058;20.076;2023-04-23T11:27:14;12.60;;;4.32;;
59159;SDS011;44941;45.058;20.076;2023-04-23T11:29:41;12.15;;;3.40;;
59159;SDS011;44941;45.058;20.076;2023-04-23T11:32:08;5.82;;;2.42;;
59159;SDS011;44941;45.058;20.076;2023-04-23T11:34:38;7.85;;;2.50;;
59159;SDS011;44941;45.058;20.076;2023-04-23T11:37:07;12.60;;;3.13;;
59159;SDS011;44941;45.058;20.076;2023-04-23T11:39:34;8.07;;;2.95;;
59159;SDS011;44941;45.058;20.076;2023-04-23T11:42:00;8.07;;;2.70;;
59159;SDS011;44941;45.058;20.076;2023-04-23T11:44:30;9.13;;;3.42;;
59159;SDS011;44941;45.058;20.076;2023-04-23T11:46:59;9.13;;;3.47;;
59159;SDS011;44941;45.058;20.076;2023-04-23T11:49:29;8.73;;;2.70;;
59159;SDS011;44941;45.058;20.076;2023-04-23T11:51:57;10.07;;;2.72;;
59159;SDS011;44941;45.058;20.076;2023-04-23T11:54:24;15.77;;;3.30;;
59159;SDS011;44941;45.058;20.076;2023-04-23T11:56:52;10.88;;;2.55;;
59159;SDS011;44941;45.058;20.076;2023-04-23T11:59:18;6.93;;;2.58;;
59159;SDS011;44941;45.058;20.076;2023-04-23T12:01:46;7.63;;;3.30;;
59159;SDS011;44941;45.058;20.076;2023-04-23T12:04:19;10.43;;;4.03;;
59159;SDS011;44941;45.058;20.076;2023-04-23T12:06:46;9.45;;;3.00;;
59159;SDS011;44941;45.058;20.076;2023-04-23T12:09:12;6.43;;;2.63;;
59159;SDS011;44941;45.058;20.076;2023-04-23T12:11:42;8.02;;;2.70;;
59159;SDS011;44941;45.058;20.076;2023-04-23T12:14:08;10.25;;;2.45;;
59159;SDS011;44941;45.058;20.076;2023-04-23T12:16:39;8.83;;;2.77;;
59159;SDS011;44941;45.058;20.076;2023-04-23T12:19:12;11.25;;;2.70;;
59159;SDS011;44941;45.058;20.076;2023-04-23T12:21:58;8.57;;;2.90;;
59159;SDS011;44941;45.058;20.076;2023-04-23T12:24:28;9.38;;;4.00;;
59159;SDS011;44941;45.058;20.076;2023-04-23T12:26:55;7.28;;;2.60;;
59159;SDS011;44941;45.058;20.076;2023-04-23T12:29:22;11.85;;;2.80;;
59159;SDS011;44941;45.058;20.076;2023-04-23T12:31:49;7.88;;;3.00;;
59159;SDS011;44941;45.058;20.076;2023-04-23T12:34:16;5.50;;;2.50;;
59159;SDS011;44941;45.058;20.076;2023-04-23T12:36:45;8.75;;;3.60;;
59159;SDS011;44941;45.058;20.076;2023-04-23T12:41:44;10.30;;;3.03;;
59159;SDS011;44941;45.058;20.076;2023-04-23T12:44:10;10.75;;;2.72;;
59159;SDS011;44941;45.058;20.076;2023-04-23T12:46:37;10.70;;;2.90;;
59159;SDS011;44941;45.058;20.076;2023-04-23T12:49:03;9.50;;;2.70;;
59159;SDS011;44941;45.058;20.076;2023-04-23T12:51:29;11.65;;;3.00;;
59159;SDS011;44941;45.058;20.076;2023-04-23T12:53:55;7.65;;;2.80;;
59159;SDS011;44941;45.058;20.076;2023-04-23T12:56:21;5.43;;;2.55;;
59159;SDS011;44941;45.058;20.076;2023-04-23T12:58:47;12.68;;;3.72;;
59159;SDS011;44941;45.058;20.076;2023-04-23T13:01:13;9.65;;;3.58;;
59159;SDS011;44941;45.058;20.076;2023-04-23T13:03:39;5.82;;;2.50;;
59159;SDS011;44941;45.058;20.076;2023-04-23T13:06:05;7.15;;;2.50;;
59159;SDS011;44941;45.058;20.076;2023-04-23T13:08:32;7.22;;;3.08;;
59159;SDS011;44941;45.058;20.076;2023-04-23T13:10:58;10.20;;;2.92;;
59159;SDS011;44941;45.058;20.076;2023-04-23T13:13:25;7.32;;;2.60;;
59159;SDS011;44941;45.058;20.076;2023-04-23T13:15:51;12.02;;;2.70;;
59159;SDS011;44941;45.058;20.076;2023-04-23T13:18:18;11.48;;;2.85;;
59159;SDS011;44941;45.058;20.076;2023-04-23T13:20:47;10.02;;;2.60;;
59159;SDS011;44941;45.058;20.076;2023-04-23T13:23:13;13.18;;;2.70;;
59159;SDS011;44941;45.058;20.076;2023-04-23T13:25:39;9.85;;;2.63;;
59159;SDS011;44941;45.058;20.076;2023-04-23T13:28:05;7.22;;;2.40;;
59159;SDS011;44941;45.058;20.076;2023-04-23T13:30:31;6.38;;;2.70;;
59159;SDS011;44941;45.058;20.076;2023-04-23T13:32:58;7.35;;;2.40;;
59159;SDS011;44941;45.058;20.076;2023-04-23T13:35:24;10.10;;;3.03;;
59159;SDS011;44941;45.058;20.076;2023-04-23T13:37:50;8.55;;;2.72;;
59159;SDS011;44941;45.058;20.076;2023-04-23T13:40:16;10.93;;;2.60;;
59159;SDS011;44941;45.058;20.076;2023-04-23T13:42:42;7.40;;;2.38;;
59159;SDS011;44941;45.058;20.076;2023-04-23T13:45:09;9.13;;;2.28;;
59159;SDS011;44941;45.058;20.076;2023-04-23T13:47:35;7.78;;;2.10;;
59159;SDS011;44941;45.058;20.076;2023-04-23T13:50:01;9.10;;;2.50;;
59159;SDS011;44941;45.058;20.076;2023-04-23T13:52:31;10.40;;;3.10;;
59159;SDS011;44941;45.058;20.076;2023-04-23T13:57:26;16.42;;;3.90;;
59159;SDS011;44941;45.058;20.076;2023-04-23T13:59:53;18.77;;;4.43;;
59159;SDS011;44941;45.058;20.076;2023-04-23T14:02:20;14.02;;;3.45;;
59159;SDS011;44941;45.058;20.076;2023-04-23T14:07:13;9.05;;;2.70;;
59159;SDS011;44941;45.058;20.076;2023-04-23T14:09:39;7.03;;;2.63;;
59159;SDS011;44941;45.058;20.076;2023-04-23T14:12:06;7.82;;;2.33;;
59159;SDS011;44941;45.058;20.076;2023-04-23T14:14:32;5.93;;;2.33;;
59159;SDS011;44941;45.058;20.076;2023-04-23T14:16:58;8.10;;;2.40;;
59159;SDS011;44941;45.058;20.076;2023-04-23T14:19:24;5.28;;;2.50;;
59159;SDS011;44941;45.058;20.076;2023-04-23T14:21:50;8.07;;;2.65;;
59159;SDS011;44941;45.058;20.076;2023-04-23T14:24:22;11.43;;;3.10;;
59159;SDS011;44941;45.058;20.076;2023-04-23T14:26:52;4.85;;;2.30;;
59159;SDS011;44941;45.058;20.076;2023-04-23T14:31:50;9.15;;;2.90;;
59159;SDS011;44941;45.058;20.076;2023-04-23T14:34:16;10.05;;;3.30;;
59159;SDS011;44941;45.058;20.076;2023-04-23T14:36:42;7.93;;;2.50;;
59159;SDS011;44941;45.058;20.076;2023-04-23T14:39:10;6.57;;;2.53;;
59159;SDS011;44941;45.058;20.076;2023-04-23T14:41:36;5.85;;;2.35;;
59159;SDS011;44941;45.058;20.076;2023-04-23T14:44:04;10.38;;;3.30;;
59159;SDS011;44941;45.058;20.076;2023-04-23T14:46:30;7.97;;;2.23;;
59159;SDS011;44941;45.058;20.076;2023-04-23T14:49:05;10.02;;;2.47;;
59159;SDS011;44941;45.058;20.076;2023-04-23T14:51:41;5.30;;;2.60;;
59159;SDS011;44941;45.058;20.076;2023-04-23T14:54:07;8.40;;;2.50;;
59159;SDS011;44941;45.058;20.076;2023-04-23T14:56:33;6.50;;;2.05;;
59159;SDS011;44941;45.058;20.076;2023-04-23T14:58:59;6.43;;;2.50;;